Weather at Oslo Gardermoen Airport

Public forecast

Using degrees Celsius for public forecast. Weather courtesy of forecast.io.

Current aviation weather report (METAR) for Oslo Gardermoen Airport

Retrieved 2020/09/30 21:20 UTC (21 minutes ago):

ENGM 302120Z 11002KT 9999 SCT026 BKN034 11/10 Q1016

Aviation forecast (TAF) for Oslo Gardermoen Airport

Retrieved 2020/09/30 18:57 UTC (3 hours ago):

TAF ENGM 301700Z 3018/0118 16005KT 9999 FEW007 BKN020 PROB40 0102/0107 0800 FG VV002